createdAt,value
2017-07-05T00:02:17.389Z,16.40
2017-07-05T00:04:45.114Z,16.40
2017-07-05T00:07:12.585Z,16.30
2017-07-05T00:09:40.185Z,16.20
2017-07-05T00:12:08.428Z,16.20
2017-07-05T00:14:35.901Z,16.20
2017-07-05T00:17:03.409Z,16.20
2017-07-05T00:19:30.882Z,16.20
2017-07-05T00:21:58.352Z,16.20
2017-07-05T00:24:25.853Z,16.10
2017-07-05T00:26:54.101Z,16.10
2017-07-05T00:29:21.571Z,16.10
2017-07-05T00:31:49.065Z,16.10
2017-07-05T00:34:16.538Z,16.10
2017-07-05T00:36:44.014Z,16.00
2017-07-05T00:39:11.509Z,15.90
2017-07-05T00:41:39.750Z,15.50
2017-07-05T00:44:07.233Z,15.50
2017-07-05T00:46:34.725Z,15.50
2017-07-05T00:49:02.198Z,15.50
2017-07-05T00:51:29.669Z,15.60
2017-07-05T00:53:57.726Z,15.60
2017-07-05T00:56:25.205Z,15.60
2017-07-05T00:58:52.674Z,15.70
2017-07-05T01:01:20.172Z,15.60
2017-07-05T01:03:47.641Z,15.60
2017-07-05T01:06:15.113Z,15.60
2017-07-05T01:08:42.653Z,15.50
2017-07-05T01:11:10.203Z,15.50
2017-07-05T01:13:37.724Z,15.50
2017-07-05T01:16:05.218Z,15.40
2017-07-05T01:18:32.689Z,15.30
2017-07-05T01:21:00.162Z,15.30
2017-07-05T01:23:27.657Z,15.30
2017-07-05T01:25:55.137Z,15.40
2017-07-05T01:28:23.390Z,15.40
2017-07-05T01:30:50.886Z,15.40
2017-07-05T01:33:18.365Z,15.40
2017-07-05T01:35:45.838Z,15.40
2017-07-05T01:38:13.333Z,15.30
2017-07-05T01:40:41.857Z,15.20
2017-07-05T01:43:09.333Z,15.10
2017-07-05T01:45:36.867Z,15.10
2017-07-05T01:48:04.345Z,15.10
2017-07-05T01:50:31.881Z,15.10
2017-07-05T01:52:59.373Z,15.10
2017-07-05T01:55:26.849Z,15.00
2017-07-05T01:57:54.413Z,15.00
2017-07-05T02:00:22.674Z,14.90
2017-07-05T02:02:50.248Z,14.80
2017-07-05T02:05:18.494Z,14.80
2017-07-05T02:07:46.009Z,14.80
2017-07-05T02:10:13.485Z,14.80
2017-07-05T02:12:40.958Z,14.80
2017-07-05T02:15:08.453Z,14.80
2017-07-05T02:17:35.974Z,14.90
2017-07-05T02:20:03.448Z,14.90
2017-07-05T02:22:31.056Z,15.00
2017-07-05T02:24:58.533Z,15.00
2017-07-05T02:27:26.034Z,15.00
2017-07-05T02:29:53.530Z,15.00
2017-07-05T02:32:21.009Z,15.00
2017-07-05T02:34:48.485Z,14.90
2017-07-05T02:37:15.986Z,14.90
2017-07-05T02:39:44.224Z,14.80
2017-07-05T02:42:11.710Z,14.80
2017-07-05T02:44:39.970Z,14.70
2017-07-05T02:47:07.441Z,14.70
2017-07-05T02:49:35.682Z,14.60
2017-07-05T02:52:03.173Z,14.50
2017-07-05T02:54:31.408Z,14.40
2017-07-05T02:56:58.944Z,14.40
2017-07-05T02:59:26.574Z,14.40
2017-07-05T03:01:54.889Z,14.40
2017-07-05T03:04:22.447Z,14.40
2017-07-05T03:06:49.941Z,14.40
2017-07-05T03:09:17.413Z,14.30
2017-07-05T03:11:45.661Z,14.30
2017-07-05T03:14:13.153Z,14.20
2017-07-05T03:16:41.392Z,14.30
2017-07-05T03:19:08.865Z,14.20
2017-07-05T03:21:36.358Z,14.30
2017-07-05T03:24:03.825Z,14.40
2017-07-05T03:26:31.602Z,14.40
2017-07-05T03:28:59.101Z,14.50
2017-07-05T03:31:26.574Z,14.50
2017-07-05T03:33:54.822Z,14.50
2017-07-05T03:36:22.551Z,14.40
2017-07-05T03:38:50.025Z,14.50
2017-07-05T03:41:17.505Z,14.50
2017-07-05T03:43:45.005Z,14.50
2017-07-05T03:46:12.477Z,14.50
2017-07-05T03:48:39.952Z,14.50
2017-07-05T03:51:07.458Z,14.40
2017-07-05T03:53:35.701Z,14.30
2017-07-05T03:56:03.183Z,14.30
2017-07-05T03:58:31.709Z,14.40
2017-07-05T04:00:59.193Z,14.30
2017-07-05T04:03:26.665Z,14.40
2017-07-05T04:05:54.166Z,14.30
2017-07-05T04:08:21.645Z,14.40
2017-07-05T04:10:49.118Z,14.40
2017-07-05T04:13:16.609Z,14.30
2017-07-05T04:15:44.857Z,14.30
2017-07-05T04:18:12.325Z,14.30
2017-07-05T04:20:39.818Z,14.30
2017-07-05T04:23:07.293Z,14.30
2017-07-05T04:25:34.774Z,14.40
2017-07-05T04:28:02.270Z,14.30
2017-07-05T04:30:30.509Z,14.20
2017-07-05T04:32:58.002Z,14.20
2017-07-05T04:35:26.272Z,14.40
2017-07-05T04:37:54.516Z,14.50
2017-07-05T04:40:21.998Z,14.50
2017-07-05T04:42:49.496Z,14.60
2017-07-05T04:45:16.970Z,14.60
2017-07-05T04:47:44.450Z,14.70
2017-07-05T04:50:11.957Z,14.80
2017-07-05T04:52:39.437Z,14.90
2017-07-05T04:55:06.922Z,15.00
2017-07-05T04:57:34.417Z,15.10
2017-07-05T05:00:02.656Z,15.30
2017-07-05T05:02:30.393Z,15.30
2017-07-05T05:04:57.893Z,15.40
2017-07-05T05:07:25.373Z,15.50
2017-07-05T05:09:53.620Z,16.30
2017-07-05T05:12:21.129Z,16.30
2017-07-05T05:14:48.605Z,17.60
2017-07-05T05:17:16.077Z,19.00
2017-07-05T05:19:43.570Z,19.90
2017-07-05T05:22:11.812Z,20.90
2017-07-05T05:24:39.281Z,20.90
2017-07-05T05:27:07.578Z,21.50
2017-07-05T05:29:35.814Z,21.60
2017-07-05T05:32:03.285Z,21.60
2017-07-05T05:34:30.777Z,21.70
2017-07-05T05:36:58.250Z,21.70
2017-07-05T05:39:25.720Z,21.80
2017-07-05T05:41:53.230Z,22.00
2017-07-05T05:44:21.470Z,22.30
2017-07-05T05:46:48.945Z,22.30
2017-07-05T05:49:16.448Z,22.40
2017-07-05T05:51:43.921Z,22.70
2017-07-05T05:54:11.399Z,22.60
2017-07-05T05:56:38.893Z,22.80
2017-07-05T05:59:07.421Z,23.00
2017-07-05T06:01:34.896Z,23.00
2017-07-05T06:04:02.388Z,23.10
2017-07-05T06:06:30.630Z,23.30
2017-07-05T06:08:58.102Z,23.30
2017-07-05T06:11:25.614Z,23.40
2017-07-05T06:13:53.089Z,23.80
2017-07-05T06:16:20.563Z,24.90
2017-07-05T06:18:48.068Z,25.30
2017-07-05T06:21:15.553Z,25.70
2017-07-05T06:23:43.065Z,26.00
2017-07-05T06:26:11.325Z,25.50
2017-07-05T06:28:38.809Z,25.50
2017-07-05T06:31:07.048Z,26.40
2017-07-05T06:33:34.536Z,26.30
2017-07-05T06:36:02.774Z,26.50
2017-07-05T06:38:30.245Z,26.50
2017-07-05T06:40:57.740Z,26.60
2017-07-05T06:43:25.229Z,26.40
2017-07-05T06:45:52.705Z,26.40
2017-07-05T06:48:20.205Z,26.40
2017-07-05T06:50:48.445Z,26.20
2017-07-05T06:53:15.926Z,26.20
2017-07-05T06:55:44.181Z,26.60
2017-07-05T06:58:11.661Z,26.60
2017-07-05T07:00:39.909Z,27.10
2017-07-05T07:03:07.401Z,27.10
2017-07-05T07:05:35.638Z,27.40
2017-07-05T07:08:03.125Z,27.40
2017-07-05T07:10:31.608Z,27.60
2017-07-05T07:12:59.846Z,27.40
2017-07-05T07:15:27.321Z,27.40
2017-07-05T07:17:54.831Z,27.20
2017-07-05T07:20:22.311Z,27.50
2017-07-05T07:22:49.780Z,27.50
2017-07-05T07:25:17.517Z,27.70
2017-07-05T07:27:44.986Z,27.90
2017-07-05T07:30:12.459Z,28.10
2017-07-05T07:32:39.950Z,27.60
2017-07-05T07:35:08.190Z,27.60
2017-07-05T07:37:35.689Z,27.60
2017-07-05T07:40:03.946Z,28.00
2017-07-05T07:42:32.187Z,28.10
2017-07-05T07:44:59.660Z,28.10
2017-07-05T07:47:27.162Z,28.20
2017-07-05T07:49:54.950Z,28.00
2017-07-05T07:52:22.445Z,27.90
2017-07-05T07:54:50.393Z,28.30
2017-07-05T07:57:17.866Z,28.40
2017-07-05T07:59:45.349Z,28.50
2017-07-05T08:02:13.610Z,29.00
2017-07-05T08:04:41.082Z,28.90
2017-07-05T08:07:09.321Z,29.30
2017-07-05T08:09:36.813Z,29.20
2017-07-05T08:12:05.057Z,29.90
2017-07-05T08:14:34.154Z,30.10
2017-07-05T08:17:01.657Z,30.10
2017-07-05T08:19:29.146Z,30.30
2017-07-05T08:21:56.617Z,30.10
2017-07-05T08:24:24.124Z,30.20
2017-07-05T08:26:51.917Z,30.20
2017-07-05T08:29:19.389Z,30.40
2017-07-05T08:31:46.877Z,30.60
2017-07-05T08:34:14.350Z,30.70
2017-07-05T08:36:42.593Z,31.30
2017-07-05T08:39:10.084Z,31.20
2017-07-05T08:41:38.321Z,31.20
2017-07-05T08:44:05.793Z,31.20
2017-07-05T08:46:33.294Z,31.30
2017-07-05T08:49:00.822Z,31.50
2017-07-05T08:51:29.102Z,32.30
2017-07-05T08:53:57.362Z,32.60
2017-07-05T08:56:24.934Z,32.60
2017-07-05T08:58:53.173Z,32.40
2017-07-05T09:01:20.672Z,32.40
2017-07-05T09:03:48.909Z,31.80
2017-07-05T09:06:16.386Z,31.80
2017-07-05T09:08:43.877Z,32.20
2017-07-05T09:11:11.421Z,32.60
2017-07-05T09:13:38.976Z,32.60
2017-07-05T09:16:06.481Z,33.00
2017-07-05T09:18:33.990Z,33.00
2017-07-05T09:21:01.477Z,33.00
2017-07-05T09:23:28.974Z,32.30
2017-07-05T09:25:56.714Z,32.10
2017-07-05T09:28:24.185Z,31.10
2017-07-05T09:30:51.681Z,31.20
2017-07-05T09:33:19.917Z,31.80
2017-07-05T09:35:47.389Z,31.70
2017-07-05T09:38:14.885Z,31.80
2017-07-05T09:40:42.352Z,32.40
2017-07-05T09:43:09.825Z,33.00
2017-07-05T09:45:37.597Z,33.40
2017-07-05T09:48:05.081Z,33.50
2017-07-05T09:50:32.554Z,33.60
2017-07-05T09:53:00.049Z,33.90
2017-07-05T09:55:27.521Z,34.10
2017-07-05T09:57:54.993Z,33.90
2017-07-05T10:00:22.490Z,33.90
2017-07-05T10:02:50.728Z,34.70
2017-07-05T10:05:18.197Z,34.60
2017-07-05T10:07:45.690Z,34.80
2017-07-05T10:10:13.931Z,35.10
2017-07-05T10:12:41.401Z,35.10
2017-07-05T10:15:08.893Z,35.30
2017-07-05T10:17:36.365Z,35.10
2017-07-05T10:20:03.833Z,35.40
2017-07-05T10:22:31.335Z,35.70
2017-07-05T10:24:58.806Z,35.50
2017-07-05T10:27:27.045Z,35.60
2017-07-05T10:29:54.542Z,35.60
2017-07-05T10:32:22.789Z,35.90
2017-07-05T10:34:50.257Z,35.80
2017-07-05T10:37:17.748Z,34.60
2017-07-05T10:39:45.277Z,33.60
2017-07-05T10:42:12.750Z,33.80
2017-07-05T10:44:40.297Z,33.70
2017-07-05T10:47:08.535Z,34.30
2017-07-05T10:49:36.006Z,34.40
2017-07-05T10:52:03.500Z,34.60
2017-07-05T10:54:30.973Z,35.00
2017-07-05T10:56:58.444Z,34.90
2017-07-05T10:59:25.933Z,35.30
2017-07-05T11:01:53.417Z,34.40
2017-07-05T11:04:21.653Z,34.80
2017-07-05T11:06:49.345Z,34.80
2017-07-05T11:09:17.622Z,35.30
2017-07-05T11:11:45.862Z,35.40
2017-07-05T11:14:13.356Z,35.50
2017-07-05T11:16:41.593Z,35.90
2017-07-05T11:19:09.064Z,35.90
2017-07-05T11:21:36.554Z,35.20
2017-07-05T11:24:04.794Z,34.40
2017-07-05T11:26:32.275Z,34.40
2017-07-05T11:29:00.801Z,35.40
2017-07-05T11:31:28.273Z,35.40
2017-07-05T11:33:55.745Z,35.90
2017-07-05T11:36:23.241Z,35.70
2017-07-05T11:38:51.476Z,35.90
2017-07-05T11:41:18.949Z,35.90
2017-07-05T11:43:46.445Z,36.30
2017-07-05T11:46:13.918Z,35.80
2017-07-05T11:48:41.394Z,36.20
2017-07-05T11:51:08.893Z,36.70
2017-07-05T11:53:37.129Z,36.80
2017-07-05T11:56:04.605Z,36.80
2017-07-05T11:58:32.101Z,36.60
2017-07-05T12:00:59.574Z,36.70
2017-07-05T12:03:27.050Z,36.90
2017-07-05T12:05:54.541Z,37.20
2017-07-05T12:08:22.017Z,36.90
2017-07-05T12:10:50.254Z,37.10
2017-07-05T12:13:17.752Z,37.10
2017-07-05T12:15:45.229Z,37.60
2017-07-05T12:18:12.705Z,37.70
2017-07-05T12:20:40.197Z,37.40
2017-07-05T12:23:07.665Z,36.60
2017-07-05T12:25:35.998Z,36.30
2017-07-05T12:28:03.521Z,36.30
2017-07-05T12:30:30.990Z,36.00
2017-07-05T12:32:58.469Z,36.50
2017-07-05T12:35:26.225Z,36.30
2017-07-05T12:37:53.698Z,36.30
2017-07-05T12:40:21.169Z,36.90
2017-07-05T12:42:48.667Z,37.40
2017-07-05T12:45:16.139Z,37.20
2017-07-05T12:47:43.612Z,36.30
2017-07-05T12:50:11.101Z,35.80
2017-07-05T12:52:38.569Z,35.70
2017-07-05T12:55:06.041Z,35.30
2017-07-05T12:57:34.973Z,35.20
2017-07-05T13:00:02.445Z,35.10
2017-07-05T13:02:29.917Z,35.00
2017-07-05T13:04:57.649Z,34.90
2017-07-05T13:07:25.125Z,34.60
2017-07-05T13:09:52.598Z,34.20
2017-07-05T13:12:20.089Z,33.90
2017-07-05T13:14:47.562Z,33.80
2017-07-05T13:17:15.033Z,33.40
2017-07-05T13:19:42.529Z,33.00
2017-07-05T13:22:10.105Z,32.40
2017-07-05T13:24:38.341Z,31.70
2017-07-05T13:27:05.849Z,31.70
2017-07-05T13:29:34.089Z,31.20
2017-07-05T13:32:01.560Z,31.10
2017-07-05T13:34:29.066Z,30.80
2017-07-05T13:36:56.537Z,30.90
2017-07-05T13:39:24.010Z,31.00
2017-07-05T13:41:51.502Z,31.00
2017-07-05T13:44:18.988Z,31.20
2017-07-05T13:46:46.458Z,31.30
2017-07-05T13:49:13.953Z,31.30
2017-07-05T13:51:41.422Z,31.20
2017-07-05T13:54:09.701Z,31.30
2017-07-05T13:56:37.965Z,31.40
2017-07-05T13:59:05.529Z,31.40
2017-07-05T14:01:32.998Z,31.30
2017-07-05T14:04:01.266Z,31.10
2017-07-05T14:06:29.796Z,31.10
2017-07-05T14:08:57.266Z,31.10
2017-07-05T14:11:24.774Z,31.20
2017-07-05T14:13:53.010Z,31.10
2017-07-05T14:16:20.485Z,31.10
2017-07-05T14:18:47.977Z,31.20
2017-07-05T14:21:15.513Z,31.20
2017-07-05T14:23:43.756Z,31.10
2017-07-05T14:26:11.251Z,31.00
2017-07-05T14:28:39.493Z,31.10
2017-07-05T14:31:06.970Z,31.10
2017-07-05T14:33:34.466Z,31.10
2017-07-05T14:36:02.245Z,31.10
2017-07-05T14:38:29.718Z,31.00
2017-07-05T14:40:57.213Z,31.10
2017-07-05T14:43:25.449Z,30.80
2017-07-05T14:45:52.921Z,30.70
2017-07-05T14:48:20.421Z,30.70
2017-07-05T14:50:47.894Z,30.70
2017-07-05T14:53:15.364Z,30.70
2017-07-05T14:55:42.864Z,30.70
2017-07-05T14:58:10.341Z,30.70
2017-07-05T15:00:38.581Z,30.70
2017-07-05T15:03:06.306Z,30.70
2017-07-05T15:05:33.781Z,30.80
2017-07-05T15:08:01.281Z,30.80
2017-07-05T15:10:29.763Z,31.00
2017-07-05T15:12:58.103Z,30.80
2017-07-05T15:15:25.645Z,30.80
2017-07-05T15:17:53.845Z,30.70
2017-07-05T15:20:21.313Z,30.70
2017-07-05T15:22:48.791Z,30.80
2017-07-05T15:25:17.045Z,30.90
2017-07-05T15:27:44.523Z,30.90
2017-07-05T15:30:12.762Z,31.00
2017-07-05T15:32:40.255Z,31.00
2017-07-05T15:35:08.573Z,30.80
2017-07-05T15:37:36.338Z,30.80
2017-07-05T15:40:03.829Z,30.80
2017-07-05T15:42:31.316Z,30.70
2017-07-05T15:44:59.554Z,30.50
2017-07-05T15:47:27.062Z,30.50
2017-07-05T15:49:54.533Z,30.50
2017-07-05T15:52:22.001Z,30.40
2017-07-05T15:54:49.492Z,30.40
2017-07-05T15:57:16.970Z,30.30
2017-07-05T15:59:45.210Z,30.20
2017-07-05T16:02:12.705Z,30.20
2017-07-05T16:04:40.946Z,30.20
2017-07-05T16:07:08.441Z,30.20
2017-07-05T16:09:36.881Z,30.00
2017-07-05T16:12:04.366Z,30.00
2017-07-05T16:14:32.605Z,30.00
2017-07-05T16:17:00.096Z,30.00
2017-07-05T16:19:27.568Z,30.00
2017-07-05T16:21:55.132Z,30.00
2017-07-05T16:24:22.708Z,29.90
2017-07-05T16:26:50.218Z,29.90
2017-07-05T16:29:17.714Z,29.90
2017-07-05T16:31:45.229Z,29.90
2017-07-05T16:34:13.550Z,29.80
2017-07-05T16:36:41.602Z,29.80
2017-07-05T16:39:09.160Z,29.80
2017-07-05T16:41:38.402Z,29.70
2017-07-05T16:44:05.934Z,29.70
2017-07-05T16:46:33.453Z,29.60
2017-07-05T16:49:01.716Z,29.40
2017-07-05T16:51:29.237Z,29.40
2017-07-05T16:53:56.806Z,29.30
2017-07-05T16:56:24.325Z,29.20
2017-07-05T16:58:52.600Z,29.10
2017-07-05T17:01:20.858Z,29.10
2017-07-05T17:03:48.426Z,29.10
2017-07-05T17:06:16.665Z,29.10
2017-07-05T17:08:44.157Z,29.10
2017-07-05T17:11:12.393Z,29.00
2017-07-05T17:13:39.879Z,29.00
2017-07-05T17:16:07.446Z,29.00
2017-07-05T17:18:36.074Z,28.90
2017-07-05T17:21:03.549Z,28.90
2017-07-05T17:23:31.041Z,28.90
2017-07-05T17:25:58.537Z,28.80
2017-07-05T17:28:26.008Z,28.80
2017-07-05T17:30:53.501Z,28.70
2017-07-05T17:33:20.973Z,28.70
2017-07-05T17:35:49.504Z,28.50
2017-07-05T17:38:17.014Z,28.40
2017-07-05T17:40:45.255Z,28.30
2017-07-05T17:43:12.732Z,28.30
2017-07-05T17:45:40.230Z,28.20
2017-07-05T17:48:07.731Z,28.10
2017-07-05T17:50:35.210Z,27.90
2017-07-05T17:53:02.706Z,27.80
2017-07-05T17:55:30.486Z,27.70
2017-07-05T17:57:58.249Z,27.60
2017-07-05T18:00:25.742Z,27.50
2017-07-05T18:02:53.214Z,27.40
2017-07-05T18:05:21.453Z,27.30
2017-07-05T18:07:48.946Z,27.30
2017-07-05T18:10:17.397Z,27.30
2017-07-05T18:12:44.873Z,27.30
2017-07-05T18:15:12.365Z,27.30
2017-07-05T18:17:39.838Z,27.30
2017-07-05T18:20:07.312Z,27.30
2017-07-05T18:22:34.877Z,27.30
2017-07-05T18:25:02.365Z,27.20
2017-07-05T18:27:29.851Z,27.10
2017-07-05T18:29:57.381Z,27.10
2017-07-05T18:32:24.902Z,26.90
2017-07-05T18:34:52.389Z,26.80
2017-07-05T18:37:19.889Z,26.70
2017-07-05T18:39:47.362Z,26.70
2017-07-05T18:42:14.869Z,26.60
2017-07-05T18:44:43.137Z,26.20
2017-07-05T18:47:10.767Z,26.20
2017-07-05T18:49:38.246Z,26.10
2017-07-05T18:52:05.754Z,26.00
2017-07-05T18:54:33.235Z,26.00
2017-07-05T18:57:00.709Z,26.00
2017-07-05T18:59:28.270Z,25.90
2017-07-05T19:01:55.750Z,25.80
2017-07-05T19:04:23.318Z,25.60
2017-07-05T19:06:51.630Z,25.40
2017-07-05T19:09:19.106Z,25.40
2017-07-05T19:11:46.576Z,25.30
2017-07-05T19:14:14.065Z,25.20
2017-07-05T19:16:42.306Z,24.90
2017-07-05T19:19:09.778Z,24.90
2017-07-05T19:21:37.274Z,24.90
2017-07-05T19:24:04.746Z,24.80
2017-07-05T19:26:32.224Z,24.70
2017-07-05T19:28:59.717Z,24.50
2017-07-05T19:31:27.433Z,24.50
2017-07-05T19:33:55.192Z,24.40
2017-07-05T19:36:22.691Z,24.30
2017-07-05T19:38:50.177Z,24.20
2017-07-05T19:41:17.649Z,24.10
2017-07-05T19:43:45.146Z,24.00
2017-07-05T19:46:12.618Z,23.90
2017-07-05T19:48:40.090Z,23.80
2017-07-05T19:51:08.357Z,23.60
2017-07-05T19:53:35.829Z,23.50
2017-07-05T19:56:04.067Z,23.40
2017-07-05T19:58:31.566Z,23.40
2017-07-05T20:00:59.807Z,22.80
2017-07-05T20:03:28.078Z,22.70
2017-07-05T20:05:55.569Z,22.70
2017-07-05T20:08:23.806Z,22.70
2017-07-05T20:10:51.278Z,22.70
2017-07-05T20:13:18.770Z,22.70
2017-07-05T20:15:46.241Z,22.60
2017-07-05T20:18:13.713Z,22.60
2017-07-05T20:20:41.205Z,22.50
2017-07-05T20:23:08.685Z,22.50
2017-07-05T20:25:36.921Z,22.40
2017-07-05T20:28:04.412Z,22.40
2017-07-05T20:30:32.649Z,22.20
2017-07-05T20:33:00.121Z,22.20
2017-07-05T20:35:27.618Z,22.10
2017-07-05T20:37:55.091Z,22.10
2017-07-05T20:40:22.573Z,21.90
2017-07-05T20:42:50.092Z,21.90
2017-07-05T20:45:17.570Z,21.80
2017-07-05T20:47:45.045Z,21.70
2017-07-05T20:50:12.537Z,21.50
2017-07-05T20:52:40.784Z,21.20
2017-07-05T20:55:08.257Z,21.10
2017-07-05T20:57:35.749Z,21.00
2017-07-05T21:00:03.224Z,20.90
2017-07-05T21:02:30.700Z,20.70
2017-07-05T21:04:58.207Z,20.70
2017-07-05T21:07:26.483Z,20.70
2017-07-05T21:09:54.721Z,20.70
2017-07-05T21:12:22.213Z,20.70
2017-07-05T21:14:50.453Z,20.60
2017-07-05T21:17:17.920Z,20.60
2017-07-05T21:19:45.429Z,20.50
2017-07-05T21:22:12.901Z,20.50
2017-07-05T21:24:40.374Z,20.50
2017-07-05T21:27:07.865Z,20.50
2017-07-05T21:29:35.337Z,20.40
2017-07-05T21:32:03.581Z,20.20
2017-07-05T21:34:31.075Z,20.20
2017-07-05T21:36:58.546Z,20.10
2017-07-05T21:39:26.021Z,20.10
2017-07-05T21:41:53.789Z,20.00
2017-07-05T21:44:21.260Z,20.00
2017-07-05T21:46:48.730Z,19.90
2017-07-05T21:49:16.221Z,19.80
2017-07-05T21:51:44.461Z,19.70
2017-07-05T21:54:13.528Z,19.70
2017-07-05T21:56:41.844Z,19.60
2017-07-05T21:59:09.318Z,19.60
2017-07-05T22:01:37.559Z,19.50
2017-07-05T22:04:05.458Z,19.50
2017-07-05T22:06:33.701Z,19.40
2017-07-05T22:09:01.170Z,19.40
2017-07-05T22:11:28.665Z,19.40
2017-07-05T22:13:56.198Z,19.30
2017-07-05T22:16:24.438Z,19.30
2017-07-05T22:18:51.934Z,19.20
2017-07-05T22:21:20.180Z,19.10
2017-07-05T22:23:47.649Z,19.10
2017-07-05T22:26:15.141Z,19.00
2017-07-05T22:28:42.614Z,18.90
2017-07-05T22:31:10.805Z,18.90
2017-07-05T22:33:38.301Z,18.80
2017-07-05T22:36:05.774Z,18.80
2017-07-05T22:38:34.017Z,18.70
2017-07-05T22:41:01.526Z,18.60
2017-07-05T22:43:29.009Z,18.60
2017-07-05T22:45:56.485Z,18.60
2017-07-05T22:48:23.974Z,18.60
2017-07-05T22:50:52.216Z,18.60
2017-07-05T22:53:19.686Z,18.50
2017-07-05T22:55:47.181Z,18.50
2017-07-05T22:58:14.650Z,18.50
2017-07-05T23:00:42.135Z,18.50
2017-07-05T23:03:09.627Z,18.40
2017-07-05T23:05:38.078Z,18.30
2017-07-05T23:08:05.549Z,18.30
2017-07-05T23:10:33.840Z,18.30
2017-07-05T23:13:02.079Z,18.30
2017-07-05T23:15:29.553Z,18.30
2017-07-05T23:17:57.058Z,18.30
2017-07-05T23:20:24.533Z,18.30
2017-07-05T23:22:52.005Z,18.20
2017-07-05T23:25:19.498Z,18.10
2017-07-05T23:27:47.742Z,18.00
2017-07-05T23:30:15.218Z,18.00
2017-07-05T23:32:42.719Z,17.90
2017-07-05T23:35:10.198Z,17.90
2017-07-05T23:37:37.689Z,17.80
2017-07-05T23:40:05.178Z,17.70
2017-07-05T23:42:32.721Z,17.60
2017-07-05T23:45:00.961Z,17.60
2017-07-05T23:47:28.672Z,17.60
2017-07-05T23:49:56.914Z,17.60
2017-07-05T23:52:24.397Z,17.50
2017-07-05T23:54:52.666Z,17.30
2017-07-05T23:57:20.905Z,17.30
2017-07-05T23:59:48.377Z,17.20
